CheckWX is a tool to help pilots better visualize weather data.  It is not intended as a substitute for an official pre-flight weather briefing.

13:18:42 UTC

TJPS TAF
Mercedita Airport
Ponce, Puerto Rico, USA
TJPS 201120Z 2012/2112 06003KT P6SM FEW030 FM201400 14015KT P6SM SCT030 SCT060 FM201600 15015KT P6SM VCTS SCT030CB BKN060 FM202200 10006KT P6SM SCT030

Aug-20@
12:00 UTC

Aug-20 @ 12:00 UTC

Aug-20@
14:00 UTC

Aug-20 @ 14:00 UTC

TJPS 201120Z 2012/2112 06003KT P6SM FEW030
Wind
  • 060° at 3 KTS
Cloud Levels
  • Few at 3,000' AGL

Aug-20@
14:00 UTC

Aug-20 @ 14:00 UTC

Aug-20@
16:00 UTC

Aug-20 @ 16:00 UTC

FM201400 14015KT P6SM SCT030 SCT060

From

From Standard forecast or significant change

Wind
  • 140° at 15 KTS
Cloud Levels
  • Scattered at 3,000' AGL
  • Scattered at 6,000' AGL

Aug-20@
16:00 UTC

Aug-20 @ 16:00 UTC

Aug-20@
22:00 UTC

Aug-20 @ 22:00 UTC

FM201600 15015KT P6SM VCTS SCT030CB BKN060

From

From Standard forecast or significant change

Wind
  • 150° at 15 KTS
Conditions
Area Thunderstorm
Cloud Levels
  • Scattered at 3,000' AGL
  • Broken at 6,000' AGL

Aug-20@
22:00 UTC

Aug-20 @ 22:00 UTC

Aug-21@
12:00 UTC

Aug-21 @ 12:00 UTC

FM202200 10006KT P6SM SCT030

From

From Standard forecast or significant change

Wind
  • 100° at 6 KTS
Cloud Levels
  • Scattered at 3,000' AGL